Polk Army Air Field
KPOE : rendu visible

Aérodrome :











RETROUVEZ-NOUS SUR...

 
LOGIN :

S'inscrire | Disclaimer

   EN    FR    IT 

 









Légende :    VFR   VFR Marginal   IFR   IFR Intensif   IFR Très Intensif
Visi : 
Plafond : 
>= 8 km
>= 3000ft
5 à 8 km
1000 à 3000 ft
1500m à 5 km
500 à 1000 ft
800 à 1500m
200 à 500 ft
< 800m
< 200 ft
Symboles :   Orages  Brouillard  Fortes neiges  Fortes précipitations  Vent > 20 kt






- Altitude de l'aérodrome : 330 ft


KPOE - Polk Army Air Field

DERNIER METAR :
  • 230106Z AUTO 32009KT 5SM -RA BR BKN007 OVC012 18/17 A2993 RMK AO2 RAB06 CIG 007V011 BKN V SCT SLP136

METARs EXPIRÉS :
  • 230058Z AUTO 31008KT 6SM BR OVC011 18/18 A2993 RMK AO2 SLP136 T01840175
  • 230043Z AUTO 32010KT 7SM OVC011 19/18 A2993 RMK AO2 LTG DSNT N SLP136
  • 230028Z AUTO 33010KT 6SM BR BKN009 OVC013 19/18 A2992 RMK AO2 LTG DSNT NE CIG 009V013 BKN V SCT SLP132
  • 222358Z AUTO 33004KT 7SM FEW013 BKN040 OVC047 20/19 A2992 RMK AO2 SLP132 60079 T01960191 10224 20195 52006
  • 222245Z AUTO 00000KT 3SM BR FEW005 SCT017 BKN033 OVC047 20/20 A2990 RMK AO2 LTG DSNT SE RAE15 SLP125

TAF TAF KPOE
Valide du 23 à 00h jusqu'au 24 à 06h UTC


230000Z 2300/2406 VRB06KT 8000 -SHRA OVC015 QNH2991INS
BECMG 2302/2303 32009KT 9999 NSW OVC007 QNH2993INS
BECMG 2306/2307 32010G15KT 9999 OVC007 QNH2999INS
BECMG 2313/2314 32010G15KT 9999 FEW008 SCT015 QNH3004INS
BECMG 2315/2316 32010G15KT 9999 FEW250 QNH3003INS TX20/2300Z TN09/2314Z



MET'MAP, la Météo Aéronautique d'un coup d'oeil ! - Copyright ORBIFLY Décembre 2007 - Disclaimer

ORBIFLY MET'MAP TEAM :

Programmation & Développement : Alexandra Zaïnal
Conception & Développement : Baudouin d'Aumeries
Co-Programmation & Développement : Marc-Olivier Méhu
Soutien technique & logistique : Manuel Goepfert

Contact : metmap@orbifly.com




SOURCES & CREDITS :

   NOAA       Earth
Advisory